createdAt,value
2023-03-05T00:00:56.697Z,1012.22
2023-03-05T00:11:03.520Z,1012.13
2023-03-05T00:21:10.506Z,1011.99
2023-03-05T00:31:17.584Z,1011.80
2023-03-05T00:41:24.491Z,1011.71
2023-03-05T00:51:31.268Z,1011.57
2023-03-05T01:01:38.466Z,1011.41
2023-03-05T01:11:45.718Z,1011.29
2023-03-05T01:21:52.901Z,1011.31
2023-03-05T01:32:00.241Z,1011.22
2023-03-05T01:42:06.661Z,1011.14
2023-03-05T01:52:13.947Z,1011.07
2023-03-05T02:02:21.402Z,1011.01
2023-03-05T02:12:28.753Z,1010.91
2023-03-05T02:22:36.086Z,1010.80
2023-03-05T02:32:43.024Z,1010.72
2023-03-05T02:42:50.828Z,1010.60
2023-03-05T02:52:58.015Z,1010.43
2023-03-05T03:03:05.599Z,1010.34
2023-03-05T03:13:13.101Z,1010.32
2023-03-05T03:23:20.548Z,1010.21
2023-03-05T03:33:27.109Z,1010.15
2023-03-05T03:43:34.036Z,1010.01
2023-03-05T03:53:41.500Z,1009.97
2023-03-05T04:03:48.181Z,1009.86
2023-03-05T04:13:55.583Z,1009.74
2023-03-05T04:24:02.315Z,1009.70
2023-03-05T04:34:09.311Z,1009.66
2023-03-05T04:44:16.514Z,1009.49
2023-03-05T04:54:23.499Z,1009.46
2023-03-05T05:04:30.484Z,1009.46
2023-03-05T05:14:37.494Z,1009.45
2023-03-05T05:24:44.666Z,1009.40
2023-03-05T05:34:51.423Z,1009.34
2023-03-05T05:44:58.633Z,1009.33
2023-03-05T05:55:06.143Z,1009.46
2023-03-05T06:05:12.864Z,1009.43
2023-03-05T06:15:20.141Z,1009.39
2023-03-05T06:25:27.097Z,1009.29
2023-03-05T06:35:34.284Z,1009.27
2023-03-05T06:45:40.923Z,1009.28
2023-03-05T06:55:48.201Z,1009.27
2023-03-05T07:05:55.175Z,1009.33
2023-03-05T07:16:02.417Z,1009.28
2023-03-05T07:26:08.922Z,1009.39
2023-03-05T07:36:15.296Z,1009.37
2023-03-05T07:46:21.487Z,1009.36
2023-03-05T07:56:28.492Z,1009.37
2023-03-05T08:06:35.309Z,1009.42
2023-03-05T08:16:42.534Z,1009.40
2023-03-05T08:26:49.642Z,1009.28
2023-03-05T08:36:56.510Z,1009.05
2023-03-05T08:47:03.742Z,1009.05
2023-03-05T08:57:10.798Z,1008.86
2023-03-05T09:07:17.958Z,1008.88
2023-03-05T09:17:25.054Z,1008.86
2023-03-05T09:27:31.682Z,1008.76
2023-03-05T09:37:38.469Z,1008.75
2023-03-05T09:47:45.013Z,1008.65
2023-03-05T09:57:52.075Z,1008.64
2023-03-05T10:07:59.055Z,1008.55
2023-03-05T10:18:06.692Z,1008.47
2023-03-05T10:28:13.719Z,1008.47
2023-03-05T10:38:20.882Z,1008.33
2023-03-05T10:48:27.111Z,1008.33
2023-03-05T10:58:34.248Z,1008.32
2023-03-05T11:08:41.060Z,1008.31
2023-03-05T11:18:47.537Z,1008.23
2023-03-05T11:28:54.036Z,1008.23
2023-03-05T11:39:01.195Z,1008.10
2023-03-05T11:49:08.253Z,1008.02
2023-03-05T11:59:15.488Z,1008.08
2023-03-05T12:09:22.366Z,1007.79
2023-03-05T12:19:29.763Z,1007.59
2023-03-05T12:29:36.401Z,1007.38
2023-03-05T12:39:44.005Z,1007.31
2023-03-05T12:49:51.722Z,1007.36
2023-03-05T12:59:59.062Z,1007.35
2023-03-05T13:10:05.434Z,1007.19
2023-03-05T13:20:12.884Z,1007.11
2023-03-05T13:30:19.569Z,1007.04
2023-03-05T13:40:26.935Z,1007.02
2023-03-05T13:50:33.724Z,1006.97
2023-03-05T14:00:40.655Z,1006.95
2023-03-05T14:10:47.677Z,1007.06
2023-03-05T14:20:54.095Z,1006.99
2023-03-05T14:31:01.261Z,1006.85
2023-03-05T14:41:07.998Z,1006.72
2023-03-05T14:51:15.206Z,1006.69
2023-03-05T15:01:22.404Z,1006.56
2023-03-05T15:11:29.618Z,1006.49
2023-03-05T15:21:37.260Z,1006.42
2023-03-05T15:31:44.310Z,1006.43
2023-03-05T15:41:51.333Z,1006.39
2023-03-05T15:51:58.191Z,1006.26
2023-03-05T16:02:04.523Z,1006.27
2023-03-05T16:12:11.184Z,1006.14
2023-03-05T16:22:18.209Z,1006.18
2023-03-05T16:32:25.420Z,1006.12
2023-03-05T16:42:32.686Z,1006.20
2023-03-05T16:52:39.381Z,1006.16
2023-03-05T17:02:46.739Z,1006.24
2023-03-05T17:12:54.145Z,1006.23
2023-03-05T17:23:01.092Z,1006.15
2023-03-05T17:33:07.851Z,1006.13
2023-03-05T17:43:14.796Z,1006.05
2023-03-05T17:53:21.960Z,1005.99
2023-03-05T18:03:28.900Z,1005.89
2023-03-05T18:13:36.476Z,1005.97
2023-03-05T18:23:43.802Z,1005.90
2023-03-05T18:33:50.933Z,1005.85
2023-03-05T18:43:57.974Z,1005.77
2023-03-05T18:54:05.038Z,1005.74
2023-03-05T19:04:12.051Z,1005.66
2023-03-05T19:14:19.345Z,1005.57
2023-03-05T19:24:26.103Z,1005.51
2023-03-05T19:34:33.036Z,1005.54
2023-03-05T19:44:39.463Z,1005.50
2023-03-05T19:54:46.155Z,1005.35
2023-03-05T20:04:52.413Z,1005.31
2023-03-05T20:14:59.690Z,1005.22
2023-03-05T20:25:06.559Z,1005.15
2023-03-05T20:35:13.839Z,1005.08
2023-03-05T20:45:20.263Z,1005.04
2023-03-05T20:55:27.372Z,1004.91
2023-03-05T21:05:34.532Z,1004.82
2023-03-05T21:15:41.833Z,1004.73
2023-03-05T21:25:48.739Z,1004.64
2023-03-05T21:35:55.947Z,1004.54
2023-03-05T21:46:03.194Z,1004.44
2023-03-05T21:56:09.847Z,1004.24
2023-03-05T22:06:16.919Z,1004.06
2023-03-05T22:16:22.760Z,1004.05
2023-03-05T22:26:30.288Z,1003.86
2023-03-05T22:36:37.143Z,1003.76
2023-03-05T22:46:43.452Z,1003.54
2023-03-05T22:56:49.953Z,1003.42
2023-03-05T23:06:57.083Z,1003.27
2023-03-05T23:17:04.619Z,1003.13
2023-03-05T23:27:11.689Z,1003.13
2023-03-05T23:37:18.357Z,1003.09
2023-03-05T23:47:25.640Z,1003.00
2023-03-05T23:57:32.799Z,1002.81
